Logo AVAMET
Benvolgut visitant, si us plau, ingressa Recuperar contrasenya

Inforatge Riola

Dades diàries. Acumulats / Últims 30 dies disponibles

Data Temperatura (°C) Humitat rel. (%) Pressió rel. (hPa) Vent (km/h) Precipitació
Mínima Mitjana Màxima Amplitud
tèrmica
Mínima Mitjana Màxima Mínima Mitjana Màxima Predom. Mitjana Ràfega
màxima
Total
(mm)
Índex-n
Mínima Mitjana Màxima Mínima Mitjana Màxima n
0 a 1
P0 max
mm 5'
Dades mensuals acumulades fins l'últim dia disponible
12/2019 9,3 10,4 11,0 12,8 14,1 15,3 19,2 9,9 41 83 94 1.005 1.013 1.023   6,2 43,5 127,6
Dades anuals acumulades fins l'últim dia disponible
2019 1,8 14,3 25,8 18,9 13,2 24,0 41,7 39,9 0 69 96 0 1.014 1.036   4,9 63,0 440,6
Últims 30 dies disponibles
05-12-2019 10,6     12,3     14,3 3,7 86 91 94 1.009 1.017 1.023 WNW 2,6 24,1 23,4 0,58 3,00
04-12-2019 11,0     12,3     14,1 3,1 73 87 92 1.005 1.007 1.011 NW 8,2 43,5 18,8 0,34 0,60
03-12-2019 9,3     11,6     14,3 5,0 73 85 91 1.011 1.016 1.018 NNE 7,2 35,4 12,8 0,42 0,40
02-12-2019 10,9     13,1     14,7 3,8 74 87 94 1.012 1.015 1.018 NNE 9,7 40,2 72,6 0,41 2,10
01-12-2019 10,3     14,6     19,2 8,9 41 67 89 1.011 1.012 1.014 W 3,5 29,0 0,0
30-11-2019 14,7     17,7     23,8 9,1 48 69 79 1.014 1.018 1.021 SW 5,6 24,1 0,0
29-11-2019 15,4     17,9     21,7 6,3 56 64 71 1.016 1.019 1.021 SW 7,4 32,2 0,0
28-11-2019 13,3     15,9     19,0 5,7 55 63 70 1.014 1.017 1.018 W 8,4 37,0 0,0
27-11-2019 14,3     18,3     21,6 7,3 42 58 76 1.009 1.011 1.014 W 7,4 40,2 0,0
26-11-2019 14,4     17,7     22,1 7,7 50 68 81 1.010 1.012 1.015 SW 6,6 33,8 0,0
25-11-2019 11,6     16,3     20,9 9,3 54 68 76 1.012 1.014 1.016 SW 8,2 38,6 0,0
24-11-2019 10,4     13,8     18,3 7,9 43 56 68 1.008 1.012 1.015 SW 9,8 37,0 0,0
23-11-2019 11,1     14,7     17,3 6,2 40 57 77 993 999 1.008 W 10,0 41,8 0,0
22-11-2019 9,4     13,8     17,8 8,4 63 81 89 994 1.002 1.009 SW 2,1 33,8 1,4
21-11-2019 7,4     12,1     16,4 9,0 62 78 89 1.008 1.009 1.011 SW 1,6 12,9 0,0
20-11-2019 7,6     11,8     17,9 10,3 40 66 86 1.009 1.012 1.016 SW 3,4 24,1 1,2
19-11-2019 6,3     10,7     16,8 10,5 36 59 78 1.015 1.016 1.019 SW 4,3 24,1 0,0
18-11-2019 6,2     11,5     17,0 10,8 45 72 86 1.008 1.012 1.017 SW 3,4 25,7 0,0
17-11-2019 7,4     11,9     16,9 9,5 42 59 87 1.010 1.013 1.015 SW 9,7 38,6 3,0 0,37 0,40
16-11-2019 6,1     10,7     17,2 11,1 37 59 79 1.007 1.012 1.015 SW 3,5 19,3 0,0
15-11-2019 9,0     11,8     16,1 7,1 43 60 74 1.001 1.004 1.007 SW 7,9 41,8 0,0
14-11-2019 10,7     13,9     17,0 6,3 49 62 80 1.001 1.003 1.010 SW 6,9 48,3 0,0
13-11-2019 11,6     14,8     20,9 9,3 48 75 87 1.006 1.008 1.012 SW 4,2 40,2 4,8 0,30 1,60
12-11-2019 9,5     14,3     20,4 10,9 32 50 69 1.010 1.012 1.014 SW 4,7 29,0 0,0
11-11-2019 7,7     13,2     18,6 10,9 38 55 67 1.011 1.014 1.015 SW 6,0 30,6 0,0
10-11-2019 9,7     13,8     18,2 8,5 36 54 67 1.011 1.013 1.015 W 6,3 40,2 0,0
09-11-2019 11,1     14,9     19,3 8,2 33 48 66 1.014 1.017 1.020 SW 8,4 32,2 0,0
08-11-2019 10,1     13,7     17,7 7,6 37 49 64 1.011 1.013 1.018 W 9,0 38,6 0,0
07-11-2019 11,9     16,6     22,3 10,4 29 54 71 1.007 1.010 1.014 SW 6,8 30,6 0,0
06-11-2019 12,2     16,5     22,6 10,4 33 52 67 1.012 1.013 1.015 SW 6,0 25,7 0,0
Últims 13 mesos disponibles
11/2019 6,1 11,6 21,2 15,5 16,1 20,1 28,2 22,1 48 60 81 999 1.011 1.019 SW 7,0 53,1 10,4
10/2019 11,1 15,9 19,5 20,0 16,1 25,6 35,4 24,3 47 72 90 1.008 1.017 1.022 SW 3,5 33,8 49,6
09/2019 14,9 19,8 22,6 23,9 22,2 28,4 34,6 19,7 0 73 86 0 984 1.024 S 4,3 48,3 78,2
08/2019 18,5 22,0 25,8 26,5 27,7 31,4 41,7 23,2 47 73 82 1.010 1.016 1.020 S 4,5 42,6 5,0
07/2019 20,2 22,0 24,7 26,8 28,2 31,2 37,5 17,3 50 71 82 1.006 1.014 1.022 SSE 5,1 45,0 2,6
06/2019 13,5 17,3 22,2 22,7 21,5 27,8 34,5 21,0 41 68 80 1.009 1.015 1.022 S 4,9 45,0 0,0
05/2019 9,3 13,9 20,7 19,0 16,9 23,7 33,3 24,0 48 70 87 1.005 1.015 1.024 S 5,3 50,0 5,6
04/2019 8,8 11,4 15,7 15,6 15,0 20,4 30,4 21,6 45 71 95 1.000 1.014 1.026 O 6,0 50,0 135,2
03/2019 5,6 8,4 14,8 14,2 13,2 20,4 28,8 23,2 42 65 92 1.012 1.023 1.030 SO 4,0 40,7 24,6
02/2019 4,8 7,0 11,6 12,4 13,3 18,5 26,1 21,3 38 67 87 995 1.025 1.034 SSO 4,7 63,0 0,6
01/2019 1,8 6,8 13,3 11,4 13,2 17,3 21,3 19,5 42 62 83 1.003 1.020 1.031 OSO 4,7 53,7 1,2
12/2018 4,1 8,4 13,0 13,3 14,1 19,1 24,1 20,0 48 73 89 1.009 1.026 1.031 O 4,0 55,6 20,0
11/2018 6,8 11,8 15,6 15,3 14,8 19,1 23,8 17,0 49 72 94 1.001 1.016 1.025 2,6 55,6 268,4
Tots els anys disponibles
2018 1,4 14,2 26,9 18,5 8,5 23,3 37,1 35,7 39 71 94 994 1.017 1.036 SSO 4,6 61,1 718,2
Temperatura (°C)
Humitat relativa (%)
Velocitat del vent i ràfega màxima (km/h)
Direcció del vent (°)
Pressió (hPa)
Precipitació (mm)
Nota sobre les dades: s'avisa a l'usuari de la provisionalitat i no oficialitat d'aquestes dades
Logo AVAMET blanc
Web allotjada a Sollutia
Llicència de Creative CommonsLa web d'AVAMET i els seus continguts estan subjectes a una llicència de
Reconeixement - No Comercial - Compartir igual
Últimes estacions: Aielo de Malferit - Centre (Soci), Faura (Inforatge), Benifairó de les Valls (Inforatge), Xàbia - Les Valls (Soci), Xàbia - Alt de la Granadella (Soci), Villena - Sierra de Salinas (Soci), Sueca - Centre (Inforatge) - - -